createdAt,value
2022-11-23T00:01:21.989Z,3.70
2022-11-23T00:04:25.916Z,3.72
2022-11-23T00:07:28.456Z,3.72
2022-11-23T00:10:31.211Z,3.75
2022-11-23T00:13:35.469Z,3.71
2022-11-23T00:19:58.361Z,3.77
2022-11-23T00:23:01.974Z,3.73
2022-11-23T00:26:05.321Z,3.69
2022-11-23T00:29:09.894Z,3.76
2022-11-23T00:32:13.131Z,3.70
2022-11-23T00:35:15.884Z,3.71
2022-11-23T00:38:18.455Z,3.77
2022-11-23T00:41:23.942Z,3.72
2022-11-23T00:44:26.561Z,3.72
2022-11-23T00:47:29.477Z,3.72
2022-11-23T00:50:33.065Z,3.67
2022-11-23T00:53:36.580Z,3.75
2022-11-23T00:56:39.038Z,3.69
2022-11-23T00:59:41.969Z,3.70
2022-11-23T01:02:44.436Z,3.70
2022-11-23T01:05:47.358Z,3.71
2022-11-23T01:08:51.588Z,3.74
2022-11-23T01:11:54.639Z,3.74
2022-11-23T01:14:58.643Z,3.74
2022-11-23T01:18:01.575Z,3.71
2022-11-23T01:21:07.040Z,3.74
2022-11-23T01:24:20.096Z,3.73
2022-11-23T01:27:22.510Z,3.70
2022-11-23T01:30:26.814Z,3.69
2022-11-23T01:33:29.288Z,3.68
2022-11-23T01:36:33.715Z,3.68
2022-11-23T01:39:36.235Z,3.75
2022-11-23T01:46:02.662Z,3.73
2022-11-23T01:49:07.247Z,3.76
2022-11-23T01:52:21.980Z,3.69
2022-11-23T01:55:25.590Z,3.63
2022-11-23T01:58:29.792Z,3.69
2022-11-23T02:01:32.646Z,3.78
2022-11-23T02:04:39.476Z,3.76
2022-11-23T02:07:42.098Z,3.74
2022-11-23T02:10:45.269Z,3.73
2022-11-23T02:13:49.227Z,3.77
2022-11-23T02:16:51.836Z,3.86
2022-11-23T02:20:08.990Z,3.85
2022-11-23T02:23:24.598Z,3.93
2022-11-23T02:26:30.215Z,3.93
2022-11-23T02:29:33.636Z,3.89
2022-11-23T02:32:37.521Z,3.97
2022-11-23T02:35:55.043Z,3.94
2022-11-23T02:39:00.863Z,3.89
2022-11-23T02:42:04.226Z,3.86
2022-11-23T02:45:19.167Z,3.83
2022-11-23T02:48:21.566Z,3.76
2022-11-23T02:51:24.491Z,3.69
2022-11-23T02:54:27.360Z,3.62
2022-11-23T02:57:30.269Z,3.57
2022-11-23T03:00:33.586Z,3.56
2022-11-23T03:03:36.379Z,3.55
2022-11-23T03:06:39.353Z,3.56
2022-11-23T03:09:42.442Z,3.51
2022-11-23T03:12:45.197Z,3.50
2022-11-23T03:15:49.087Z,3.45
2022-11-23T03:18:52.125Z,3.47
2022-11-23T03:21:57.300Z,3.34
2022-11-23T03:25:00.140Z,3.38
2022-11-23T03:28:03.133Z,3.37
2022-11-23T03:31:06.109Z,3.36
2022-11-23T03:34:10.344Z,3.39
2022-11-23T03:37:13.369Z,3.39
2022-11-23T03:40:16.278Z,3.29
2022-11-23T03:43:23.078Z,3.31
2022-11-23T03:46:25.930Z,3.44
2022-11-23T03:49:28.758Z,3.35
2022-11-23T03:52:31.443Z,3.36
2022-11-23T03:55:34.732Z,3.29
2022-11-23T03:58:37.717Z,3.25
2022-11-23T04:01:41.454Z,3.23
2022-11-23T04:04:45.016Z,3.39
2022-11-23T04:07:48.721Z,3.34
2022-11-23T04:10:51.721Z,3.37
2022-11-23T04:13:54.313Z,3.30
2022-11-23T04:16:57.203Z,3.26
2022-11-23T04:20:00.119Z,3.26
2022-11-23T04:23:03.224Z,3.31
2022-11-23T04:26:05.834Z,3.35
2022-11-23T04:29:08.883Z,3.34
2022-11-23T04:32:11.853Z,3.33
2022-11-23T04:35:15.236Z,3.34
2022-11-23T04:38:18.062Z,3.31
2022-11-23T04:41:22.300Z,3.31
2022-11-23T04:44:25.073Z,3.31
2022-11-23T04:47:29.125Z,3.29
2022-11-23T04:50:34.287Z,3.28
2022-11-23T04:53:37.351Z,3.30
2022-11-23T04:56:40.285Z,3.30
2022-11-23T04:59:43.608Z,3.28
2022-11-23T05:02:46.250Z,3.33
2022-11-23T05:05:49.849Z,3.31
2022-11-23T05:08:52.436Z,3.31
2022-11-23T05:11:56.083Z,3.29
2022-11-23T05:14:58.642Z,3.28
2022-11-23T05:18:04.023Z,3.28
2022-11-23T05:21:06.707Z,3.33
2022-11-23T05:24:09.903Z,3.33
2022-11-23T05:27:14.938Z,3.34
2022-11-23T05:30:18.643Z,3.34
2022-11-23T05:33:21.925Z,3.36
2022-11-23T05:36:25.342Z,3.40
2022-11-23T05:39:28.024Z,3.40
2022-11-23T05:42:30.972Z,3.40
2022-11-23T05:45:35.262Z,3.43
2022-11-23T05:48:38.679Z,3.44
2022-11-23T05:51:43.223Z,3.46
2022-11-23T05:54:46.645Z,3.46
2022-11-23T05:57:50.361Z,3.47
2022-11-23T06:01:00.452Z,3.47
2022-11-23T06:04:03.991Z,3.47
2022-11-23T06:07:07.664Z,3.47
2022-11-23T06:10:12.621Z,3.48
2022-11-23T06:13:15.760Z,3.47
2022-11-23T06:16:20.047Z,3.49
2022-11-23T06:19:24.961Z,3.53
2022-11-23T06:22:30.013Z,3.51
2022-11-23T06:25:34.040Z,3.46
2022-11-23T06:28:39.191Z,3.45
2022-11-23T06:31:44.152Z,3.45
2022-11-23T06:34:47.080Z,3.46
2022-11-23T06:37:51.400Z,3.53
2022-11-23T06:40:58.058Z,3.49
2022-11-23T06:44:01.162Z,3.49
2022-11-23T06:47:05.781Z,3.54
2022-11-23T06:50:09.568Z,3.56
2022-11-23T06:53:12.909Z,3.55
2022-11-23T06:56:16.085Z,3.55
2022-11-23T06:59:18.984Z,3.65
2022-11-23T07:02:21.863Z,3.69
2022-11-23T07:05:25.129Z,3.72
2022-11-23T07:08:28.953Z,3.73
2022-11-23T07:11:33.009Z,3.77
2022-11-23T07:14:36.522Z,3.70
2022-11-23T07:17:44.244Z,3.78
2022-11-23T07:20:46.971Z,3.87
2022-11-23T07:23:50.040Z,3.95
2022-11-23T07:26:52.734Z,3.94
2022-11-23T07:29:55.572Z,3.86
2022-11-23T07:33:04.257Z,4.03
2022-11-23T07:36:07.687Z,4.07
2022-11-23T07:39:11.664Z,4.21
2022-11-23T07:42:32.347Z,4.19
2022-11-23T07:45:37.576Z,4.16
2022-11-23T07:48:41.677Z,4.19
2022-11-23T07:51:46.100Z,4.14
2022-11-23T07:54:48.951Z,4.19
2022-11-23T07:57:55.103Z,4.11
2022-11-23T08:00:57.907Z,4.09
2022-11-23T08:04:00.859Z,3.99
2022-11-23T08:07:04.198Z,4.10
2022-11-23T08:10:07.341Z,4.08
2022-11-23T08:13:09.920Z,3.99
2022-11-23T08:16:13.398Z,3.96
2022-11-23T08:19:16.861Z,4.02
2022-11-23T08:22:21.064Z,3.98
2022-11-23T08:25:27.656Z,4.00
2022-11-23T08:28:31.259Z,3.98
2022-11-23T08:31:33.776Z,4.01
2022-11-23T08:34:36.605Z,3.99
2022-11-23T08:37:39.287Z,4.06
2022-11-23T08:40:42.165Z,4.08
2022-11-23T08:43:44.652Z,4.08
2022-11-23T08:46:47.567Z,4.12
2022-11-23T08:49:50.216Z,4.13
2022-11-23T08:52:57.713Z,4.13
2022-11-23T08:56:01.706Z,4.14
2022-11-23T08:59:05.047Z,4.15
2022-11-23T09:02:10.693Z,4.17
2022-11-23T09:05:13.783Z,4.17
2022-11-23T09:08:16.666Z,4.11
2022-11-23T09:11:19.585Z,4.02
2022-11-23T09:14:23.356Z,4.12
2022-11-23T09:17:26.115Z,4.11
2022-11-23T09:20:28.698Z,4.12
2022-11-23T09:23:32.684Z,4.26
2022-11-23T09:26:35.588Z,4.23
2022-11-23T09:29:38.694Z,4.28
2022-11-23T09:32:41.399Z,4.25
2022-11-23T09:35:44.428Z,4.25
2022-11-23T09:38:56.124Z,4.28
2022-11-23T09:42:19.211Z,4.22
2022-11-23T09:45:34.941Z,4.22
2022-11-23T09:48:40.746Z,4.22
2022-11-23T09:51:44.474Z,4.28
2022-11-23T09:54:50.452Z,4.24
2022-11-23T09:57:57.305Z,4.27
2022-11-23T10:01:04.375Z,4.30
2022-11-23T10:04:13.850Z,4.27
2022-11-23T10:07:46.976Z,4.30
2022-11-23T10:11:20.326Z,4.30
2022-11-23T10:14:42.046Z,4.30
2022-11-23T10:18:03.719Z,4.37
2022-11-23T10:21:31.263Z,4.32
2022-11-23T10:24:38.567Z,4.39
2022-11-23T10:27:41.269Z,4.42
2022-11-23T10:30:51.775Z,4.39
2022-11-23T10:33:56.297Z,4.46
2022-11-23T10:36:59.205Z,4.48
2022-11-23T10:40:01.825Z,4.54
2022-11-23T10:43:14.556Z,4.33
2022-11-23T10:46:35.506Z,4.65
2022-11-23T10:49:38.375Z,4.71
2022-11-23T10:52:54.556Z,4.71
2022-11-23T10:55:59.639Z,4.70
2022-11-23T10:59:02.435Z,4.83
2022-11-23T11:02:15.715Z,4.86
2022-11-23T11:09:02.758Z,4.96
2022-11-23T11:12:18.605Z,4.92
2022-11-23T11:15:21.449Z,4.95
2022-11-23T11:18:26.112Z,5.00
2022-11-23T11:21:33.501Z,5.04
2022-11-23T11:24:46.476Z,5.02
2022-11-23T11:27:53.607Z,5.05
2022-11-23T11:31:04.322Z,5.03
2022-11-23T11:34:24.535Z,5.14
2022-11-23T11:37:33.295Z,5.18
2022-11-23T11:40:55.014Z,5.20
2022-11-23T11:44:08.236Z,5.22
2022-11-23T11:47:28.294Z,5.27
2022-11-23T11:50:34.556Z,5.22
2022-11-23T11:53:50.061Z,5.26
2022-11-23T11:57:00.690Z,5.14
2022-11-23T12:00:10.741Z,5.21
2022-11-23T12:03:38.380Z,5.20
2022-11-23T12:06:48.793Z,5.17
2022-11-23T12:09:57.653Z,5.18
2022-11-23T12:13:00.476Z,5.09
2022-11-23T12:16:08.863Z,5.03
2022-11-23T12:19:26.636Z,5.15
2022-11-23T12:22:48.297Z,5.14
2022-11-23T12:26:13.117Z,5.12
2022-11-23T12:29:36.687Z,4.96
2022-11-23T12:32:55.527Z,5.13
2022-11-23T12:36:29.546Z,5.12
2022-11-23T12:39:44.205Z,5.07
2022-11-23T12:42:52.845Z,5.07
2022-11-23T12:46:07.707Z,4.99
2022-11-23T12:49:28.196Z,4.95
2022-11-23T12:52:58.453Z,4.94
2022-11-23T12:56:41.131Z,4.91
2022-11-23T13:00:08.248Z,4.89
2022-11-23T13:03:33.619Z,4.84
2022-11-23T13:11:06.941Z,4.77
2022-11-23T13:14:47.229Z,4.78
2022-11-23T13:18:02.079Z,4.82
2022-11-23T13:21:18.102Z,4.91
2022-11-23T13:24:25.280Z,4.89
2022-11-23T13:27:31.567Z,4.92
2022-11-23T13:30:59.613Z,4.90
2022-11-23T13:34:01.977Z,4.92
2022-11-23T13:37:13.207Z,4.91
2022-11-23T13:40:26.082Z,4.94
2022-11-23T13:43:36.217Z,4.94
2022-11-23T13:46:38.855Z,4.95
2022-11-23T13:49:44.114Z,4.78
2022-11-23T13:52:49.698Z,4.91
2022-11-23T13:55:53.843Z,4.86
2022-11-23T13:58:59.363Z,4.85
2022-11-23T14:02:08.316Z,4.84
2022-11-23T14:05:30.864Z,4.82
2022-11-23T14:08:35.113Z,4.78
2022-11-23T14:12:03.501Z,4.82
2022-11-23T14:15:16.439Z,4.78
2022-11-23T14:19:03.606Z,4.75
2022-11-23T14:22:23.167Z,4.77
2022-11-23T14:25:31.973Z,4.71
2022-11-23T14:28:44.991Z,4.67
2022-11-23T14:31:59.887Z,4.63
2022-11-23T14:35:21.327Z,4.67
2022-11-23T14:38:49.118Z,4.68
2022-11-23T14:41:54.713Z,4.72
2022-11-23T14:45:03.424Z,4.73
2022-11-23T14:48:29.259Z,4.78
2022-11-23T14:51:33.438Z,4.79
2022-11-23T14:54:36.102Z,4.83
2022-11-23T14:57:44.400Z,4.82
2022-11-23T15:00:48.145Z,4.84
2022-11-23T15:04:07.640Z,4.84
2022-11-23T15:07:17.606Z,4.83
2022-11-23T15:10:52.512Z,4.77
2022-11-23T15:13:57.887Z,4.75
2022-11-23T15:17:18.287Z,4.78
2022-11-23T15:20:22.726Z,4.75
2022-11-23T15:23:33.127Z,4.64
2022-11-23T15:26:47.897Z,4.61
2022-11-23T15:29:54.755Z,4.64
2022-11-23T15:33:02.420Z,4.61
2022-11-23T15:36:05.338Z,4.64
2022-11-23T15:39:10.800Z,4.46
2022-11-23T15:42:22.888Z,4.62
2022-11-23T15:45:43.954Z,4.60
2022-11-23T15:48:50.045Z,4.57
2022-11-23T15:51:59.410Z,4.52
2022-11-23T15:55:14.204Z,4.54
2022-11-23T15:58:20.734Z,4.52
2022-11-23T16:01:23.658Z,4.47
2022-11-23T16:04:33.000Z,4.54
2022-11-23T16:07:50.183Z,4.50
2022-11-23T16:10:54.756Z,4.52
2022-11-23T16:14:13.944Z,4.50
2022-11-23T16:17:25.011Z,4.53
2022-11-23T16:20:28.236Z,4.51
2022-11-23T16:23:56.311Z,4.49
2022-11-23T16:26:59.021Z,4.49
2022-11-23T16:30:04.404Z,4.45
2022-11-23T16:33:13.765Z,4.46
2022-11-23T16:36:16.557Z,4.44
2022-11-23T16:39:19.306Z,4.46
2022-11-23T16:42:22.077Z,4.39
2022-11-23T16:45:24.679Z,4.37
2022-11-23T16:48:28.018Z,4.37
2022-11-23T16:51:31.832Z,4.36
2022-11-23T16:54:35.304Z,4.25
2022-11-23T16:57:38.441Z,4.41
2022-11-23T17:00:42.243Z,4.32
2022-11-23T17:03:45.134Z,4.44
2022-11-23T17:06:47.959Z,4.44
2022-11-23T17:09:50.812Z,4.43
2022-11-23T17:12:55.171Z,4.45
2022-11-23T17:15:57.605Z,4.44
2022-11-23T17:19:00.406Z,4.44
2022-11-23T17:22:03.008Z,4.44
2022-11-23T17:25:14.492Z,4.43
2022-11-23T17:28:21.708Z,4.42
2022-11-23T17:31:24.707Z,4.41
2022-11-23T17:34:27.313Z,4.42
2022-11-23T17:37:30.339Z,4.42
2022-11-23T17:40:32.935Z,4.40
2022-11-23T17:43:35.779Z,4.41
2022-11-23T17:46:38.751Z,4.42
2022-11-23T17:49:41.595Z,4.43
2022-11-23T17:52:47.809Z,4.44
2022-11-23T17:55:51.301Z,4.42
2022-11-23T17:58:54.393Z,4.43
2022-11-23T18:01:57.947Z,4.41
2022-11-23T18:05:01.016Z,4.41
2022-11-23T18:08:03.539Z,4.40
2022-11-23T18:11:06.786Z,4.41
2022-11-23T18:14:09.719Z,4.39
2022-11-23T18:17:12.435Z,4.42
2022-11-23T18:20:15.916Z,4.40
2022-11-23T18:23:18.980Z,4.42
2022-11-23T18:26:25.907Z,4.41
2022-11-23T18:29:28.978Z,4.39
2022-11-23T18:32:31.690Z,4.39
2022-11-23T18:35:34.642Z,4.39
2022-11-23T18:38:38.240Z,4.35
2022-11-23T18:41:41.258Z,4.35
2022-11-23T18:44:43.776Z,4.31
2022-11-23T18:47:46.880Z,4.30
2022-11-23T18:50:51.373Z,4.28
2022-11-23T18:53:55.688Z,4.28
2022-11-23T18:56:58.422Z,4.26
2022-11-23T19:00:01.954Z,4.25
2022-11-23T19:03:05.101Z,4.29
2022-11-23T19:06:09.451Z,4.28
2022-11-23T19:09:14.273Z,4.27
2022-11-23T19:12:17.188Z,4.24
2022-11-23T19:15:20.011Z,4.22
2022-11-23T19:18:23.212Z,4.22
2022-11-23T19:21:28.212Z,4.24
2022-11-23T19:24:31.025Z,4.24
2022-11-23T19:27:36.227Z,4.24
2022-11-23T19:30:39.347Z,4.20
2022-11-23T19:33:46.490Z,4.24
2022-11-23T19:36:49.255Z,4.23
2022-11-23T19:39:52.112Z,4.26
2022-11-23T19:42:55.156Z,4.29
2022-11-23T19:45:59.437Z,4.26
2022-11-23T19:49:03.538Z,4.21
2022-11-23T19:52:06.425Z,4.20
2022-11-23T19:55:09.563Z,4.24
2022-11-23T19:58:12.112Z,4.19
2022-11-23T20:01:17.477Z,4.22
2022-11-23T20:04:21.576Z,4.17
2022-11-23T20:07:24.227Z,4.14
2022-11-23T20:10:26.984Z,4.19
2022-11-23T20:13:29.701Z,4.10
2022-11-23T20:16:33.238Z,4.14
2022-11-23T20:19:36.485Z,4.06
2022-11-23T20:22:39.924Z,4.04
2022-11-23T20:25:42.714Z,4.08
2022-11-23T20:28:46.871Z,4.02
2022-11-23T20:31:51.614Z,4.06
2022-11-23T20:34:56.219Z,4.02
2022-11-23T20:37:59.167Z,4.04
2022-11-23T20:41:14.601Z,4.01
2022-11-23T20:44:17.331Z,4.02
2022-11-23T20:47:20.390Z,3.97
2022-11-23T20:50:25.403Z,4.03
2022-11-23T20:53:28.285Z,4.07
2022-11-23T20:56:32.242Z,4.05
2022-11-23T20:59:35.827Z,4.03
2022-11-23T21:02:38.649Z,4.02
2022-11-23T21:05:43.458Z,3.97
2022-11-23T21:08:48.717Z,3.97
2022-11-23T21:12:10.302Z,3.97
2022-11-23T21:15:13.137Z,3.99
2022-11-23T21:18:16.009Z,3.97
2022-11-23T21:21:19.050Z,4.01
2022-11-23T21:24:22.043Z,4.04
2022-11-23T21:27:28.200Z,4.08
2022-11-23T21:30:31.301Z,4.08
2022-11-23T21:33:37.663Z,4.04
2022-11-23T21:36:40.444Z,4.02
2022-11-23T21:39:46.594Z,4.04
2022-11-23T21:42:52.682Z,4.05
2022-11-23T21:46:09.027Z,4.05
2022-11-23T21:49:12.018Z,4.06
2022-11-23T21:52:14.847Z,4.12
2022-11-23T21:55:17.729Z,4.08
2022-11-23T21:58:20.275Z,4.13
2022-11-23T22:01:25.413Z,4.08
2022-11-23T22:04:28.432Z,4.13
2022-11-23T22:07:33.336Z,4.10
2022-11-23T22:10:36.211Z,4.03
2022-11-23T22:13:39.950Z,4.01
2022-11-23T22:16:44.676Z,3.99
2022-11-23T22:19:47.324Z,4.01
2022-11-23T22:22:50.097Z,3.94
2022-11-23T22:25:52.679Z,3.97
2022-11-23T22:28:56.340Z,3.95
2022-11-23T22:31:58.955Z,3.95
2022-11-23T22:35:01.831Z,3.82
2022-11-23T22:38:04.371Z,3.82
2022-11-23T22:41:12.408Z,3.87
2022-11-23T22:44:14.943Z,3.89
2022-11-23T22:47:17.802Z,3.88
2022-11-23T22:50:20.719Z,3.85
2022-11-23T22:53:24.380Z,3.74
2022-11-23T22:56:27.951Z,3.81
2022-11-23T22:59:30.732Z,3.84
2022-11-23T23:02:33.315Z,3.82
2022-11-23T23:05:36.262Z,3.80
2022-11-23T23:08:38.835Z,3.81
2022-11-23T23:11:41.767Z,3.86
2022-11-23T23:14:44.322Z,3.87
2022-11-23T23:17:47.312Z,3.83
2022-11-23T23:20:49.824Z,3.87
2022-11-23T23:23:54.566Z,3.81
2022-11-23T23:26:57.054Z,3.82
2022-11-23T23:30:00.027Z,3.78
2022-11-23T23:33:03.281Z,3.75
2022-11-23T23:36:11.760Z,3.78
2022-11-23T23:39:14.466Z,3.69
2022-11-23T23:42:18.230Z,3.72
2022-11-23T23:45:20.764Z,3.73
2022-11-23T23:48:23.826Z,3.70
2022-11-23T23:51:26.363Z,3.64
2022-11-23T23:54:29.109Z,3.66
2022-11-23T23:57:31.665Z,3.49
